Terminal Aerodrome Forecast
Issued by NWS

Home | Current Version | Previous Version | Graphics & Text | Print | Product List | Glossary On
Versions: 1 2 3 4 5 6 7 8 9 10 11 12 13 14 15 16 17 18 19 20 21 22
000
FTUS43 KABR 030500
TAFATY
TAF
KATY 030538Z 0306/0406 17017KT P6SM OVC070
     FM030800 19010KT 2SM -SN OVC030
     FM031000 30016G27KT 3/4SM -SN BLSN OVC010
     FM031300 33028G38KT 1/4SM SN BLSN OVC007
     FM031800 32020G30KT 1SM BLSN OVC015
     FM040000 32017KT P6SM BKN040=

USA.gov is the U.S. government's official web portal to all federal, state and local government web resources and services.